sensor_id;sensor_type;location;lat;lon;timestamp;P1;durP1;ratioP1;P2;durP2;ratioP2
49578;SDS011;35483;50.828;3.228;2023-09-08T00:02:27;8.73;;;7.82;;
49578;SDS011;35483;50.828;3.228;2023-09-08T00:04:53;9.18;;;8.18;;
49578;SDS011;35483;50.828;3.228;2023-09-08T00:07:20;9.82;;;8.20;;
49578;SDS011;35483;50.828;3.228;2023-09-08T00:09:46;12.32;;;7.78;;
49578;SDS011;35483;50.828;3.228;2023-09-08T00:12:12;10.95;;;8.10;;
49578;SDS011;35483;50.828;3.228;2023-09-08T00:14:37;8.90;;;7.85;;
49578;SDS011;35483;50.828;3.228;2023-09-08T00:17:04;10.50;;;8.05;;
49578;SDS011;35483;50.828;3.228;2023-09-08T00:19:30;8.50;;;7.65;;
49578;SDS011;35483;50.828;3.228;2023-09-08T00:21:56;8.95;;;7.47;;
49578;SDS011;35483;50.828;3.228;2023-09-08T00:24:22;9.50;;;7.88;;
49578;SDS011;35483;50.828;3.228;2023-09-08T00:26:47;9.20;;;7.60;;
49578;SDS011;35483;50.828;3.228;2023-09-08T00:29:13;8.43;;;7.38;;
49578;SDS011;35483;50.828;3.228;2023-09-08T00:31:41;8.48;;;7.65;;
49578;SDS011;35483;50.828;3.228;2023-09-08T00:34:07;13.02;;;7.88;;
49578;SDS011;35483;50.828;3.228;2023-09-08T00:36:33;9.45;;;7.75;;
49578;SDS011;35483;50.828;3.228;2023-09-08T00:38:59;9.45;;;7.75;;
49578;SDS011;35483;50.828;3.228;2023-09-08T00:41:24;8.45;;;7.35;;
49578;SDS011;35483;50.828;3.228;2023-09-08T00:43:50;8.68;;;7.22;;
49578;SDS011;35483;50.828;3.228;2023-09-08T00:46:16;8.88;;;7.30;;
49578;SDS011;35483;50.828;3.228;2023-09-08T00:48:42;9.93;;;7.88;;
49578;SDS011;35483;50.828;3.228;2023-09-08T00:51:08;12.88;;;7.93;;
49578;SDS011;35483;50.828;3.228;2023-09-08T00:53:37;8.82;;;7.97;;
49578;SDS011;35483;50.828;3.228;2023-09-08T00:56:03;10.60;;;8.07;;
49578;SDS011;35483;50.828;3.228;2023-09-08T00:58:29;10.23;;;7.88;;
49578;SDS011;35483;50.828;3.228;2023-09-08T01:00:56;9.23;;;7.82;;
49578;SDS011;35483;50.828;3.228;2023-09-08T01:03:24;8.80;;;7.85;;
49578;SDS011;35483;50.828;3.228;2023-09-08T01:05:50;8.90;;;7.63;;
49578;SDS011;35483;50.828;3.228;2023-09-08T01:08:17;9.23;;;7.97;;
49578;SDS011;35483;50.828;3.228;2023-09-08T01:10:43;10.88;;;7.63;;
49578;SDS011;35483;50.828;3.228;2023-09-08T01:13:10;7.88;;;7.00;;
49578;SDS011;35483;50.828;3.228;2023-09-08T01:15:36;8.60;;;7.50;;
49578;SDS011;35483;50.828;3.228;2023-09-08T01:18:02;10.50;;;7.38;;
49578;SDS011;35483;50.828;3.228;2023-09-08T01:20:35;8.38;;;7.20;;
49578;SDS011;35483;50.828;3.228;2023-09-08T01:26:12;9.65;;;8.50;;
49578;SDS011;35483;50.828;3.228;2023-09-08T01:28:45;8.82;;;7.47;;
49578;SDS011;35483;50.828;3.228;2023-09-08T01:31:14;10.98;;;7.78;;
49578;SDS011;35483;50.828;3.228;2023-09-08T01:33:41;11.02;;;8.20;;
49578;SDS011;35483;50.828;3.228;2023-09-08T01:36:09;12.55;;;7.43;;
49578;SDS011;35483;50.828;3.228;2023-09-08T01:38:35;11.45;;;8.38;;
49578;SDS011;35483;50.828;3.228;2023-09-08T01:41:01;8.40;;;7.57;;
49578;SDS011;35483;50.828;3.228;2023-09-08T01:43:27;9.30;;;7.68;;
49578;SDS011;35483;50.828;3.228;2023-09-08T01:45:52;9.15;;;7.53;;
49578;SDS011;35483;50.828;3.228;2023-09-08T01:48:18;9.48;;;8.00;;
49578;SDS011;35483;50.828;3.228;2023-09-08T01:50:44;9.38;;;7.82;;
49578;SDS011;35483;50.828;3.228;2023-09-08T01:53:11;9.60;;;7.82;;
49578;SDS011;35483;50.828;3.228;2023-09-08T01:55:37;9.57;;;8.57;;
49578;SDS011;35483;50.828;3.228;2023-09-08T01:58:03;9.48;;;8.23;;
49578;SDS011;35483;50.828;3.228;2023-09-08T02:00:28;8.77;;;7.50;;
49578;SDS011;35483;50.828;3.228;2023-09-08T02:02:54;9.15;;;8.18;;
49578;SDS011;35483;50.828;3.228;2023-09-08T02:05:20;10.50;;;8.18;;
49578;SDS011;35483;50.828;3.228;2023-09-08T02:07:46;11.60;;;9.23;;
49578;SDS011;35483;50.828;3.228;2023-09-08T02:10:11;12.02;;;8.20;;
49578;SDS011;35483;50.828;3.228;2023-09-08T02:12:38;9.43;;;7.50;;
49578;SDS011;35483;50.828;3.228;2023-09-08T02:15:04;10.27;;;7.70;;
49578;SDS011;35483;50.828;3.228;2023-09-08T02:17:30;10.57;;;9.25;;
49578;SDS011;35483;50.828;3.228;2023-09-08T02:19:56;11.25;;;7.65;;
49578;SDS011;35483;50.828;3.228;2023-09-08T02:22:22;9.13;;;7.97;;
49578;SDS011;35483;50.828;3.228;2023-09-08T02:24:47;10.95;;;8.35;;
49578;SDS011;35483;50.828;3.228;2023-09-08T02:27:13;9.10;;;7.78;;
49578;SDS011;35483;50.828;3.228;2023-09-08T02:29:39;10.70;;;8.18;;
49578;SDS011;35483;50.828;3.228;2023-09-08T02:32:05;11.40;;;8.52;;
49578;SDS011;35483;50.828;3.228;2023-09-08T02:34:33;9.73;;;7.53;;
49578;SDS011;35483;50.828;3.228;2023-09-08T02:37:01;9.18;;;8.20;;
49578;SDS011;35483;50.828;3.228;2023-09-08T02:39:27;10.73;;;8.07;;
49578;SDS011;35483;50.828;3.228;2023-09-08T02:41:53;10.32;;;8.18;;
49578;SDS011;35483;50.828;3.228;2023-09-08T02:44:20;8.80;;;7.90;;
49578;SDS011;35483;50.828;3.228;2023-09-08T02:46:47;10.20;;;7.53;;
49578;SDS011;35483;50.828;3.228;2023-09-08T02:49:13;9.10;;;8.13;;
49578;SDS011;35483;50.828;3.228;2023-09-08T02:51:38;10.23;;;8.77;;
49578;SDS011;35483;50.828;3.228;2023-09-08T02:54:04;10.43;;;7.60;;
49578;SDS011;35483;50.828;3.228;2023-09-08T02:56:30;9.02;;;7.93;;
49578;SDS011;35483;50.828;3.228;2023-09-08T02:58:56;8.40;;;7.50;;
49578;SDS011;35483;50.828;3.228;2023-09-08T03:01:22;9.90;;;8.02;;
49578;SDS011;35483;50.828;3.228;2023-09-08T03:03:47;9.23;;;8.05;;
49578;SDS011;35483;50.828;3.228;2023-09-08T03:06:14;9.05;;;8.15;;
49578;SDS011;35483;50.828;3.228;2023-09-08T03:08:43;9.23;;;8.18;;
49578;SDS011;35483;50.828;3.228;2023-09-08T03:11:08;9.32;;;8.25;;
49578;SDS011;35483;50.828;3.228;2023-09-08T03:13:34;10.30;;;8.57;;
49578;SDS011;35483;50.828;3.228;2023-09-08T03:16:07;10.98;;;8.02;;
49578;SDS011;35483;50.828;3.228;2023-09-08T03:18:34;10.43;;;7.88;;
49578;SDS011;35483;50.828;3.228;2023-09-08T03:21:02;11.05;;;8.40;;
49578;SDS011;35483;50.828;3.228;2023-09-08T03:23:43;9.85;;;8.20;;
49578;SDS011;35483;50.828;3.228;2023-09-08T03:26:10;11.98;;;9.15;;
49578;SDS011;35483;50.828;3.228;2023-09-08T03:28:36;11.35;;;8.45;;
49578;SDS011;35483;50.828;3.228;2023-09-08T03:31:03;11.27;;;9.43;;
49578;SDS011;35483;50.828;3.228;2023-09-08T03:33:29;9.73;;;8.73;;
49578;SDS011;35483;50.828;3.228;2023-09-08T03:35:55;13.10;;;9.27;;
49578;SDS011;35483;50.828;3.228;2023-09-08T03:38:22;9.73;;;8.52;;
49578;SDS011;35483;50.828;3.228;2023-09-08T03:40:48;11.20;;;9.18;;
49578;SDS011;35483;50.828;3.228;2023-09-08T03:43:14;11.70;;;9.27;;
49578;SDS011;35483;50.828;3.228;2023-09-08T03:45:39;13.05;;;9.30;;
49578;SDS011;35483;50.828;3.228;2023-09-08T03:48:06;10.20;;;9.02;;
49578;SDS011;35483;50.828;3.228;2023-09-08T03:50:32;10.13;;;8.43;;
49578;SDS011;35483;50.828;3.228;2023-09-08T03:52:58;11.07;;;8.85;;
49578;SDS011;35483;50.828;3.228;2023-09-08T03:55:23;9.38;;;8.43;;
49578;SDS011;35483;50.828;3.228;2023-09-08T03:57:49;9.27;;;7.72;;
49578;SDS011;35483;50.828;3.228;2023-09-08T04:00:15;9.45;;;8.35;;
49578;SDS011;35483;50.828;3.228;2023-09-08T04:02:46;8.65;;;7.65;;
49578;SDS011;35483;50.828;3.228;2023-09-08T04:05:13;9.00;;;8.05;;
49578;SDS011;35483;50.828;3.228;2023-09-08T04:07:38;9.40;;;8.13;;
49578;SDS011;35483;50.828;3.228;2023-09-08T04:10:04;8.50;;;7.60;;
49578;SDS011;35483;50.828;3.228;2023-09-08T04:12:31;11.18;;;8.75;;
49578;SDS011;35483;50.828;3.228;2023-09-08T04:14:56;9.98;;;8.30;;
49578;SDS011;35483;50.828;3.228;2023-09-08T04:17:22;10.27;;;8.40;;
49578;SDS011;35483;50.828;3.228;2023-09-08T04:19:48;9.18;;;8.05;;
49578;SDS011;35483;50.828;3.228;2023-09-08T04:22:14;11.52;;;8.80;;
49578;SDS011;35483;50.828;3.228;2023-09-08T04:24:40;12.02;;;8.50;;
49578;SDS011;35483;50.828;3.228;2023-09-08T04:27:06;9.68;;;8.68;;
49578;SDS011;35483;50.828;3.228;2023-09-08T04:29:33;9.10;;;8.13;;
49578;SDS011;35483;50.828;3.228;2023-09-08T04:31:59;10.15;;;8.68;;
49578;SDS011;35483;50.828;3.228;2023-09-08T04:34:25;12.10;;;9.02;;
49578;SDS011;35483;50.828;3.228;2023-09-08T04:36:50;9.48;;;8.52;;
49578;SDS011;35483;50.828;3.228;2023-09-08T04:39:16;15.35;;;8.70;;
49578;SDS011;35483;50.828;3.228;2023-09-08T04:41:42;9.45;;;8.40;;
49578;SDS011;35483;50.828;3.228;2023-09-08T04:44:08;9.98;;;8.35;;
49578;SDS011;35483;50.828;3.228;2023-09-08T04:46:34;11.63;;;9.30;;
49578;SDS011;35483;50.828;3.228;2023-09-08T04:49:00;10.75;;;9.75;;
49578;SDS011;35483;50.828;3.228;2023-09-08T04:51:26;18.65;;;9.55;;
49578;SDS011;35483;50.828;3.228;2023-09-08T04:53:51;14.02;;;9.85;;
49578;SDS011;35483;50.828;3.228;2023-09-08T04:56:17;13.65;;;9.55;;
49578;SDS011;35483;50.828;3.228;2023-09-08T04:58:43;13.45;;;9.05;;
49578;SDS011;35483;50.828;3.228;2023-09-08T05:01:09;14.43;;;9.85;;
49578;SDS011;35483;50.828;3.228;2023-09-08T05:03:34;15.43;;;9.82;;
49578;SDS011;35483;50.828;3.228;2023-09-08T05:06:00;12.60;;;9.35;;
49578;SDS011;35483;50.828;3.228;2023-09-08T05:08:27;13.18;;;9.57;;
49578;SDS011;35483;50.828;3.228;2023-09-08T05:10:53;11.27;;;10.05;;
49578;SDS011;35483;50.828;3.228;2023-09-08T05:13:19;11.05;;;9.45;;
49578;SDS011;35483;50.828;3.228;2023-09-08T05:15:47;14.68;;;10.60;;
49578;SDS011;35483;50.828;3.228;2023-09-08T05:18:13;11.38;;;10.18;;
49578;SDS011;35483;50.828;3.228;2023-09-08T05:20:39;11.35;;;9.35;;
49578;SDS011;35483;50.828;3.228;2023-09-08T05:23:05;13.52;;;9.40;;
49578;SDS011;35483;50.828;3.228;2023-09-08T05:25:30;13.80;;;9.77;;
49578;SDS011;35483;50.828;3.228;2023-09-08T05:27:56;11.15;;;9.75;;
49578;SDS011;35483;50.828;3.228;2023-09-08T05:30:22;12.43;;;9.55;;
49578;SDS011;35483;50.828;3.228;2023-09-08T05:32:48;15.50;;;10.70;;
49578;SDS011;35483;50.828;3.228;2023-09-08T05:35:13;13.25;;;10.20;;
49578;SDS011;35483;50.828;3.228;2023-09-08T05:37:39;15.60;;;10.48;;
49578;SDS011;35483;50.828;3.228;2023-09-08T05:40:05;13.65;;;10.52;;
49578;SDS011;35483;50.828;3.228;2023-09-08T05:42:32;11.45;;;9.48;;
49578;SDS011;35483;50.828;3.228;2023-09-08T05:44:57;14.75;;;10.77;;
49578;SDS011;35483;50.828;3.228;2023-09-08T05:47:23;14.18;;;10.52;;
49578;SDS011;35483;50.828;3.228;2023-09-08T05:49:49;12.15;;;10.82;;
49578;SDS011;35483;50.828;3.228;2023-09-08T05:52:15;15.48;;;10.25;;
49578;SDS011;35483;50.828;3.228;2023-09-08T05:54:40;15.43;;;10.55;;
49578;SDS011;35483;50.828;3.228;2023-09-08T05:57:06;15.18;;;10.63;;
49578;SDS011;35483;50.828;3.228;2023-09-08T05:59:32;17.95;;;10.75;;
49578;SDS011;35483;50.828;3.228;2023-09-08T06:01:57;17.33;;;10.93;;
49578;SDS011;35483;50.828;3.228;2023-09-08T06:04:23;14.68;;;10.38;;
49578;SDS011;35483;50.828;3.228;2023-09-08T06:06:49;16.95;;;10.43;;
49578;SDS011;35483;50.828;3.228;2023-09-08T06:09:15;12.43;;;10.13;;
49578;SDS011;35483;50.828;3.228;2023-09-08T06:11:41;16.45;;;11.98;;
49578;SDS011;35483;50.828;3.228;2023-09-08T06:14:08;14.75;;;11.85;;
49578;SDS011;35483;50.828;3.228;2023-09-08T06:16:34;15.05;;;11.52;;
49578;SDS011;35483;50.828;3.228;2023-09-08T06:19:00;13.25;;;10.68;;
49578;SDS011;35483;50.828;3.228;2023-09-08T06:21:28;15.85;;;11.48;;
49578;SDS011;35483;50.828;3.228;2023-09-08T06:23:54;18.13;;;12.30;;
49578;SDS011;35483;50.828;3.228;2023-09-08T06:26:19;12.85;;;11.23;;
49578;SDS011;35483;50.828;3.228;2023-09-08T06:28:45;17.17;;;12.52;;
49578;SDS011;35483;50.828;3.228;2023-09-08T06:31:12;13.80;;;11.35;;
49578;SDS011;35483;50.828;3.228;2023-09-08T06:33:39;19.25;;;13.60;;
49578;SDS011;35483;50.828;3.228;2023-09-08T06:36:05;20.35;;;12.57;;
49578;SDS011;35483;50.828;3.228;2023-09-08T06:38:32;13.70;;;12.10;;
49578;SDS011;35483;50.828;3.228;2023-09-08T06:40:58;16.27;;;12.07;;
49578;SDS011;35483;50.828;3.228;2023-09-08T06:43:24;14.35;;;11.65;;
49578;SDS011;35483;50.828;3.228;2023-09-08T06:45:50;18.02;;;12.48;;
49578;SDS011;35483;50.828;3.228;2023-09-08T06:48:16;16.63;;;12.35;;
49578;SDS011;35483;50.828;3.228;2023-09-08T06:50:41;15.73;;;12.90;;
49578;SDS011;35483;50.828;3.228;2023-09-08T06:53:07;16.88;;;12.73;;
49578;SDS011;35483;50.828;3.228;2023-09-08T06:55:33;14.43;;;12.30;;
49578;SDS011;35483;50.828;3.228;2023-09-08T06:57:59;15.85;;;12.48;;
49578;SDS011;35483;50.828;3.228;2023-09-08T07:00:24;14.07;;;12.27;;
49578;SDS011;35483;50.828;3.228;2023-09-08T07:02:50;14.95;;;12.27;;
49578;SDS011;35483;50.828;3.228;2023-09-08T07:05:16;16.40;;;10.98;;
49578;SDS011;35483;50.828;3.228;2023-09-08T07:07:42;16.42;;;12.10;;
49578;SDS011;35483;50.828;3.228;2023-09-08T07:10:08;13.05;;;11.65;;
49578;SDS011;35483;50.828;3.228;2023-09-08T07:12:34;13.05;;;11.48;;
49578;SDS011;35483;50.828;3.228;2023-09-08T07:15:00;14.50;;;12.35;;
49578;SDS011;35483;50.828;3.228;2023-09-08T07:17:26;17.90;;;12.30;;
49578;SDS011;35483;50.828;3.228;2023-09-08T07:19:51;17.00;;;12.25;;
49578;SDS011;35483;50.828;3.228;2023-09-08T07:22:17;14.45;;;11.70;;
49578;SDS011;35483;50.828;3.228;2023-09-08T07:24:44;19.10;;;11.85;;
49578;SDS011;35483;50.828;3.228;2023-09-08T07:27:10;16.23;;;11.45;;
49578;SDS011;35483;50.828;3.228;2023-09-08T07:29:38;13.45;;;11.35;;
49578;SDS011;35483;50.828;3.228;2023-09-08T07:32:04;15.40;;;12.32;;
49578;SDS011;35483;50.828;3.228;2023-09-08T07:34:31;13.43;;;11.80;;
49578;SDS011;35483;50.828;3.228;2023-09-08T07:36:57;13.68;;;11.40;;
49578;SDS011;35483;50.828;3.228;2023-09-08T07:39:23;14.50;;;11.35;;
49578;SDS011;35483;50.828;3.228;2023-09-08T07:41:48;14.95;;;12.02;;
49578;SDS011;35483;50.828;3.228;2023-09-08T07:44:14;12.13;;;10.88;;
49578;SDS011;35483;50.828;3.228;2023-09-08T07:46:40;14.10;;;11.50;;
49578;SDS011;35483;50.828;3.228;2023-09-08T07:49:05;15.60;;;12.10;;
49578;SDS011;35483;50.828;3.228;2023-09-08T07:51:31;12.98;;;11.20;;
49578;SDS011;35483;50.828;3.228;2023-09-08T07:53:57;15.68;;;11.00;;
49578;SDS011;35483;50.828;3.228;2023-09-08T07:56:23;12.52;;;11.23;;
49578;SDS011;35483;50.828;3.228;2023-09-08T07:58:49;15.10;;;11.48;;
49578;SDS011;35483;50.828;3.228;2023-09-08T08:01:15;13.05;;;10.65;;
49578;SDS011;35483;50.828;3.228;2023-09-08T08:03:41;14.75;;;11.88;;
49578;SDS011;35483;50.828;3.228;2023-09-08T08:06:06;16.13;;;11.27;;
49578;SDS011;35483;50.828;3.228;2023-09-08T08:08:33;14.00;;;11.07;;
49578;SDS011;35483;50.828;3.228;2023-09-08T08:11:07;15.27;;;10.93;;
49578;SDS011;35483;50.828;3.228;2023-09-08T08:13:40;12.80;;;10.20;;
49578;SDS011;35483;50.828;3.228;2023-09-08T08:16:06;14.57;;;11.20;;
49578;SDS011;35483;50.828;3.228;2023-09-08T08:18:32;14.95;;;12.00;;
49578;SDS011;35483;50.828;3.228;2023-09-08T08:20:57;16.45;;;12.18;;
49578;SDS011;35483;50.828;3.228;2023-09-08T08:23:25;15.70;;;11.98;;
49578;SDS011;35483;50.828;3.228;2023-09-08T08:25:51;16.02;;;10.90;;
49578;SDS011;35483;50.828;3.228;2023-09-08T08:28:18;15.10;;;11.60;;
49578;SDS011;35483;50.828;3.228;2023-09-08T08:30:45;14.50;;;12.38;;
49578;SDS011;35483;50.828;3.228;2023-09-08T08:33:12;14.02;;;11.43;;
49578;SDS011;35483;50.828;3.228;2023-09-08T08:35:38;12.52;;;10.88;;
49578;SDS011;35483;50.828;3.228;2023-09-08T08:38:05;13.30;;;10.32;;
49578;SDS011;35483;50.828;3.228;2023-09-08T08:40:31;13.32;;;10.75;;
49578;SDS011;35483;50.828;3.228;2023-09-08T08:42:59;13.85;;;10.85;;
49578;SDS011;35483;50.828;3.228;2023-09-08T08:45:25;13.02;;;11.73;;
49578;SDS011;35483;50.828;3.228;2023-09-08T08:47:52;15.38;;;12.30;;
49578;SDS011;35483;50.828;3.228;2023-09-08T08:50:19;12.63;;;10.27;;
49578;SDS011;35483;50.828;3.228;2023-09-08T08:52:45;13.02;;;10.88;;
49578;SDS011;35483;50.828;3.228;2023-09-08T08:55:12;13.13;;;10.55;;
49578;SDS011;35483;50.828;3.228;2023-09-08T08:57:40;11.95;;;10.25;;
49578;SDS011;35483;50.828;3.228;2023-09-08T09:00:07;10.93;;;9.48;;
49578;SDS011;35483;50.828;3.228;2023-09-08T09:02:35;12.18;;;9.40;;
49578;SDS011;35483;50.828;3.228;2023-09-08T09:05:09;11.82;;;10.57;;
49578;SDS011;35483;50.828;3.228;2023-09-08T09:07:41;11.90;;;10.02;;
49578;SDS011;35483;50.828;3.228;2023-09-08T09:10:08;13.70;;;10.15;;
49578;SDS011;35483;50.828;3.228;2023-09-08T09:12:35;14.15;;;9.73;;
49578;SDS011;35483;50.828;3.228;2023-09-08T09:15:02;11.73;;;10.20;;
49578;SDS011;35483;50.828;3.228;2023-09-08T09:17:29;14.48;;;10.80;;
49578;SDS011;35483;50.828;3.228;2023-09-08T09:20:14;14.73;;;11.70;;
49578;SDS011;35483;50.828;3.228;2023-09-08T09:22:46;13.60;;;11.30;;
49578;SDS011;35483;50.828;3.228;2023-09-08T09:28:08;15.80;;;10.85;;
49578;SDS011;35483;50.828;3.228;2023-09-08T09:30:47;15.60;;;10.27;;
49578;SDS011;35483;50.828;3.228;2023-09-08T09:33:17;12.40;;;10.25;;
49578;SDS011;35483;50.828;3.228;2023-09-08T09:35:44;13.32;;;10.93;;
49578;SDS011;35483;50.828;3.228;2023-09-08T09:38:15;12.13;;;9.45;;
49578;SDS011;35483;50.828;3.228;2023-09-08T09:40:43;14.85;;;9.35;;
49578;SDS011;35483;50.828;3.228;2023-09-08T09:43:09;11.25;;;10.02;;
49578;SDS011;35483;50.828;3.228;2023-09-08T09:45:36;14.95;;;9.48;;
49578;SDS011;35483;50.828;3.228;2023-09-08T09:48:04;11.43;;;9.63;;
49578;SDS011;35483;50.828;3.228;2023-09-08T09:50:31;14.32;;;8.68;;
49578;SDS011;35483;50.828;3.228;2023-09-08T09:52:59;10.15;;;9.20;;
49578;SDS011;35483;50.828;3.228;2023-09-08T09:55:33;10.65;;;9.27;;
49578;SDS011;35483;50.828;3.228;2023-09-08T09:58:16;10.70;;;8.63;;
49578;SDS011;35483;50.828;3.228;2023-09-08T10:03:14;6.90;;;6.15;;
49578;SDS011;35483;50.828;3.228;2023-09-08T10:05:40;6.93;;;6.28;;
49578;SDS011;35483;50.828;3.228;2023-09-08T10:08:05;7.50;;;5.68;;
49578;SDS011;35483;50.828;3.228;2023-09-08T10:10:32;9.80;;;5.00;;
49578;SDS011;35483;50.828;3.228;2023-09-08T10:13:02;6.82;;;4.68;;
49578;SDS011;35483;50.828;3.228;2023-09-08T10:15:33;5.03;;;4.53;;
49578;SDS011;35483;50.828;3.228;2023-09-08T10:18:02;5.50;;;5.00;;
49578;SDS011;35483;50.828;3.228;2023-09-08T10:20:29;8.35;;;5.35;;
49578;SDS011;35483;50.828;3.228;2023-09-08T10:23:04;9.48;;;5.70;;
49578;SDS011;35483;50.828;3.228;2023-09-08T10:25:37;7.25;;;5.47;;
49578;SDS011;35483;50.828;3.228;2023-09-08T10:28:07;6.85;;;5.68;;
49578;SDS011;35483;50.828;3.228;2023-09-08T10:30:33;7.43;;;5.88;;
49578;SDS011;35483;50.828;3.228;2023-09-08T10:33:00;7.85;;;5.20;;
49578;SDS011;35483;50.828;3.228;2023-09-08T10:35:27;6.43;;;5.57;;
49578;SDS011;35483;50.828;3.228;2023-09-08T10:38:21;6.78;;;6.10;;
49578;SDS011;35483;50.828;3.228;2023-09-08T10:40:52;5.20;;;4.70;;
49578;SDS011;35483;50.828;3.228;2023-09-08T10:43:38;5.25;;;4.75;;
49578;SDS011;35483;50.828;3.228;2023-09-08T10:46:10;5.97;;;5.38;;
49578;SDS011;35483;50.828;3.228;2023-09-08T10:48:46;5.53;;;4.85;;
49578;SDS011;35483;50.828;3.228;2023-09-08T10:51:15;5.35;;;4.72;;
49578;SDS011;35483;50.828;3.228;2023-09-08T10:53:42;6.43;;;5.38;;
49578;SDS011;35483;50.828;3.228;2023-09-08T10:56:11;6.22;;;5.28;;
49578;SDS011;35483;50.828;3.228;2023-09-08T10:58:37;5.50;;;4.88;;
49578;SDS011;35483;50.828;3.228;2023-09-08T11:01:05;7.25;;;5.68;;
49578;SDS011;35483;50.828;3.228;2023-09-08T11:06:04;7.03;;;5.30;;
49578;SDS011;35483;50.828;3.228;2023-09-08T11:08:32;8.38;;;5.50;;
49578;SDS011;35483;50.828;3.228;2023-09-08T11:10:58;6.22;;;5.30;;
49578;SDS011;35483;50.828;3.228;2023-09-08T11:13:25;8.10;;;5.63;;
49578;SDS011;35483;50.828;3.228;2023-09-08T11:15:52;6.53;;;5.90;;
49578;SDS011;35483;50.828;3.228;2023-09-08T11:18:39;5.68;;;5.00;;
49578;SDS011;35483;50.828;3.228;2023-09-08T11:21:07;6.82;;;5.50;;
49578;SDS011;35483;50.828;3.228;2023-09-08T11:23:34;6.18;;;5.47;;
49578;SDS011;35483;50.828;3.228;2023-09-08T11:26:00;9.02;;;6.25;;
49578;SDS011;35483;50.828;3.228;2023-09-08T11:28:26;6.95;;;5.82;;
49578;SDS011;35483;50.828;3.228;2023-09-08T11:30:53;9.35;;;5.53;;
49578;SDS011;35483;50.828;3.228;2023-09-08T11:33:21;7.22;;;6.25;;
49578;SDS011;35483;50.828;3.228;2023-09-08T11:35:51;7.47;;;5.40;;
49578;SDS011;35483;50.828;3.228;2023-09-08T11:38:18;8.98;;;5.28;;
49578;SDS011;35483;50.828;3.228;2023-09-08T11:40:49;11.75;;;6.30;;
49578;SDS011;35483;50.828;3.228;2023-09-08T11:43:15;7.47;;;5.28;;
49578;SDS011;35483;50.828;3.228;2023-09-08T11:45:40;6.65;;;5.78;;
49578;SDS011;35483;50.828;3.228;2023-09-08T11:48:08;7.07;;;5.40;;
49578;SDS011;35483;50.828;3.228;2023-09-08T11:50:34;6.97;;;5.22;;
49578;SDS011;35483;50.828;3.228;2023-09-08T11:53:00;6.63;;;5.53;;
49578;SDS011;35483;50.828;3.228;2023-09-08T11:55:27;7.88;;;6.55;;
49578;SDS011;35483;50.828;3.228;2023-09-08T11:57:54;6.25;;;5.53;;
49578;SDS011;35483;50.828;3.228;2023-09-08T12:00:22;7.13;;;5.80;;
49578;SDS011;35483;50.828;3.228;2023-09-08T12:02:51;8.25;;;6.15;;
49578;SDS011;35483;50.828;3.228;2023-09-08T12:05:24;6.80;;;5.53;;
49578;SDS011;35483;50.828;3.228;2023-09-08T12:07:51;11.43;;;5.70;;
49578;SDS011;35483;50.828;3.228;2023-09-08T12:10:18;8.32;;;6.35;;
49578;SDS011;35483;50.828;3.228;2023-09-08T12:15:11;6.78;;;5.95;;
49578;SDS011;35483;50.828;3.228;2023-09-08T12:17:54;8.82;;;5.85;;
49578;SDS011;35483;50.828;3.228;2023-09-08T12:20:20;8.40;;;7.30;;
49578;SDS011;35483;50.828;3.228;2023-09-08T12:22:49;7.80;;;6.80;;
49578;SDS011;35483;50.828;3.228;2023-09-08T12:25:16;8.65;;;6.32;;
49578;SDS011;35483;50.828;3.228;2023-09-08T12:27:42;6.53;;;5.10;;
49578;SDS011;35483;50.828;3.228;2023-09-08T12:30:15;7.47;;;5.97;;
49578;SDS011;35483;50.828;3.228;2023-09-08T12:32:45;9.73;;;6.25;;
49578;SDS011;35483;50.828;3.228;2023-09-08T12:35:13;9.68;;;6.30;;
49578;SDS011;35483;50.828;3.228;2023-09-08T12:37:46;7.63;;;6.72;;
49578;SDS011;35483;50.828;3.228;2023-09-08T12:40:12;8.00;;;6.22;;
49578;SDS011;35483;50.828;3.228;2023-09-08T12:42:40;7.40;;;6.20;;
49578;SDS011;35483;50.828;3.228;2023-09-08T12:45:06;8.38;;;6.82;;
49578;SDS011;35483;50.828;3.228;2023-09-08T12:47:32;8.00;;;5.80;;
49578;SDS011;35483;50.828;3.228;2023-09-08T12:49:58;7.57;;;6.07;;
49578;SDS011;35483;50.828;3.228;2023-09-08T12:52:24;7.00;;;6.30;;
49578;SDS011;35483;50.828;3.228;2023-09-08T12:54:49;10.18;;;6.28;;
49578;SDS011;35483;50.828;3.228;2023-09-08T12:57:15;4.63;;;4.13;;
49578;SDS011;35483;50.828;3.228;2023-09-08T12:59:41;4.47;;;4.07;;
49578;SDS011;35483;50.828;3.228;2023-09-08T13:02:06;4.60;;;4.13;;
49578;SDS011;35483;50.828;3.228;2023-09-08T13:04:32;5.18;;;4.68;;
49578;SDS011;35483;50.828;3.228;2023-09-08T13:06:58;5.90;;;4.78;;
49578;SDS011;35483;50.828;3.228;2023-09-08T13:09:27;5.57;;;4.35;;
49578;SDS011;35483;50.828;3.228;2023-09-08T13:11:53;5.25;;;4.20;;
49578;SDS011;35483;50.828;3.228;2023-09-08T13:14:18;4.90;;;3.75;;
49578;SDS011;35483;50.828;3.228;2023-09-08T13:16:45;5.78;;;3.75;;
49578;SDS011;35483;50.828;3.228;2023-09-08T13:19:11;4.32;;;3.95;;
49578;SDS011;35483;50.828;3.228;2023-09-08T13:21:37;4.95;;;4.38;;
49578;SDS011;35483;50.828;3.228;2023-09-08T13:24:05;4.90;;;4.43;;
49578;SDS011;35483;50.828;3.228;2023-09-08T13:26:32;5.55;;;4.50;;
49578;SDS011;35483;50.828;3.228;2023-09-08T13:28:57;5.18;;;4.28;;
49578;SDS011;35483;50.828;3.228;2023-09-08T13:31:23;6.93;;;4.93;;
49578;SDS011;35483;50.828;3.228;2023-09-08T13:33:49;6.40;;;4.90;;
49578;SDS011;35483;50.828;3.228;2023-09-08T13:36:14;5.97;;;5.07;;
49578;SDS011;35483;50.828;3.228;2023-09-08T13:38:40;9.07;;;5.55;;
49578;SDS011;35483;50.828;3.228;2023-09-08T13:41:06;7.75;;;5.88;;
49578;SDS011;35483;50.828;3.228;2023-09-08T13:43:31;6.47;;;5.78;;
49578;SDS011;35483;50.828;3.228;2023-09-08T13:45:57;6.68;;;5.45;;
49578;SDS011;35483;50.828;3.228;2023-09-08T13:48:23;9.57;;;5.78;;
49578;SDS011;35483;50.828;3.228;2023-09-08T13:50:49;7.07;;;5.20;;
49578;SDS011;35483;50.828;3.228;2023-09-08T13:53:14;5.72;;;5.18;;
49578;SDS011;35483;50.828;3.228;2023-09-08T13:55:40;7.47;;;5.30;;
49578;SDS011;35483;50.828;3.228;2023-09-08T13:58:06;6.80;;;5.13;;
49578;SDS011;35483;50.828;3.228;2023-09-08T14:00:32;7.13;;;5.45;;
49578;SDS011;35483;50.828;3.228;2023-09-08T14:02:57;5.00;;;4.25;;
49578;SDS011;35483;50.828;3.228;2023-09-08T14:05:23;5.57;;;4.85;;
49578;SDS011;35483;50.828;3.228;2023-09-08T14:07:50;6.85;;;4.88;;
49578;SDS011;35483;50.828;3.228;2023-09-08T14:10:17;5.25;;;4.70;;
49578;SDS011;35483;50.828;3.228;2023-09-08T14:12:42;4.65;;;4.22;;
49578;SDS011;35483;50.828;3.228;2023-09-08T14:15:08;6.07;;;4.45;;
49578;SDS011;35483;50.828;3.228;2023-09-08T14:17:34;7.15;;;4.78;;
49578;SDS011;35483;50.828;3.228;2023-09-08T14:20:00;7.70;;;5.35;;
49578;SDS011;35483;50.828;3.228;2023-09-08T14:22:25;7.38;;;4.97;;
49578;SDS011;35483;50.828;3.228;2023-09-08T14:24:51;6.10;;;4.38;;
49578;SDS011;35483;50.828;3.228;2023-09-08T14:27:17;7.05;;;4.93;;
49578;SDS011;35483;50.828;3.228;2023-09-08T14:29:43;5.93;;;5.28;;
49578;SDS011;35483;50.828;3.228;2023-09-08T14:32:09;6.55;;;5.25;;
49578;SDS011;35483;50.828;3.228;2023-09-08T14:34:35;6.03;;;5.38;;
49578;SDS011;35483;50.828;3.228;2023-09-08T14:37:00;6.45;;;5.95;;
49578;SDS011;35483;50.828;3.228;2023-09-08T14:39:26;6.88;;;5.57;;
49578;SDS011;35483;50.828;3.228;2023-09-08T14:41:52;6.60;;;5.32;;
49578;SDS011;35483;50.828;3.228;2023-09-08T14:44:19;5.70;;;4.93;;
49578;SDS011;35483;50.828;3.228;2023-09-08T14:46:47;7.43;;;5.57;;
49578;SDS011;35483;50.828;3.228;2023-09-08T14:49:13;5.50;;;5.00;;
49578;SDS011;35483;50.828;3.228;2023-09-08T14:51:40;6.32;;;5.70;;